createdAt,value
2022-11-19T00:01:26.666Z,4.30
2022-11-19T00:03:54.710Z,4.30
2022-11-19T00:06:24.401Z,4.20
2022-11-19T00:08:51.901Z,4.20
2022-11-19T00:11:43.672Z,4.10
2022-11-19T00:14:13.128Z,4.10
2022-11-19T00:16:41.216Z,4.00
2022-11-19T00:19:11.011Z,3.90
2022-11-19T00:21:39.125Z,3.90
2022-11-19T00:24:06.959Z,3.90
2022-11-19T00:26:34.444Z,3.80
2022-11-19T00:29:02.135Z,3.80
2022-11-19T00:31:29.569Z,3.80
2022-11-19T00:33:56.845Z,3.70
2022-11-19T00:36:24.455Z,3.60
2022-11-19T00:38:51.825Z,3.60
2022-11-19T00:41:20.014Z,3.50
2022-11-19T00:43:47.496Z,3.40
2022-11-19T00:46:22.373Z,3.50
2022-11-19T00:48:51.620Z,3.40
2022-11-19T00:51:20.122Z,3.30
2022-11-19T00:53:47.645Z,3.30
2022-11-19T00:56:18.528Z,3.30
2022-11-19T00:58:46.831Z,3.30
2022-11-19T01:01:15.526Z,3.40
2022-11-19T01:03:43.510Z,3.40
2022-11-19T01:06:13.207Z,3.40
2022-11-19T01:08:43.720Z,3.40
2022-11-19T01:11:20.290Z,3.40
2022-11-19T01:13:48.063Z,3.40
2022-11-19T01:16:24.165Z,3.40
2022-11-19T01:18:51.859Z,3.40
2022-11-19T01:21:21.338Z,3.40
2022-11-19T01:23:49.095Z,3.40
2022-11-19T01:26:16.821Z,3.40
2022-11-19T01:28:45.507Z,3.40
2022-11-19T01:31:18.614Z,3.40
2022-11-19T01:33:46.442Z,3.40
2022-11-19T01:36:22.843Z,3.40
2022-11-19T01:38:51.943Z,3.40
2022-11-19T01:41:21.135Z,3.40
2022-11-19T01:44:28.752Z,3.40
2022-11-19T01:46:56.112Z,3.30
2022-11-19T01:49:23.368Z,3.20
2022-11-19T01:52:00.888Z,3.20
2022-11-19T01:54:39.416Z,3.10
2022-11-19T01:57:10.015Z,3.00
2022-11-19T01:59:38.576Z,3.00
2022-11-19T02:02:05.935Z,2.90
2022-11-19T02:04:35.231Z,2.80
2022-11-19T02:07:02.917Z,2.80
2022-11-19T02:09:30.782Z,2.70
2022-11-19T02:12:11.853Z,2.70
2022-11-19T02:15:03.433Z,2.70
2022-11-19T02:18:02.407Z,2.70
2022-11-19T02:20:51.965Z,2.60
2022-11-19T02:23:46.726Z,2.70
2022-11-19T02:26:44.075Z,2.60
2022-11-19T02:29:29.282Z,2.60
2022-11-19T02:32:01.868Z,2.60
2022-11-19T02:34:30.678Z,2.60
2022-11-19T02:37:03.606Z,2.60
2022-11-19T02:39:43.796Z,2.60
2022-11-19T02:42:15.766Z,2.60
2022-11-19T02:44:59.661Z,2.70
2022-11-19T02:47:47.260Z,2.70
2022-11-19T02:50:51.800Z,2.70
2022-11-19T02:53:19.244Z,2.70
2022-11-19T02:56:09.238Z,2.70
2022-11-19T02:58:58.725Z,2.80
2022-11-19T03:01:48.396Z,2.80
2022-11-19T03:04:29.891Z,2.80
2022-11-19T03:07:19.038Z,2.80
2022-11-19T03:09:54.745Z,2.70
2022-11-19T03:12:22.017Z,2.70
2022-11-19T03:15:16.172Z,2.70
2022-11-19T03:18:07.105Z,2.70
2022-11-19T03:20:44.027Z,2.80
2022-11-19T03:23:19.753Z,2.80
2022-11-19T03:26:18.678Z,2.80
2022-11-19T03:28:48.050Z,2.90
2022-11-19T03:31:18.176Z,3.00
2022-11-19T03:33:49.883Z,3.00
2022-11-19T03:36:30.047Z,3.00
2022-11-19T03:39:00.860Z,3.00
2022-11-19T03:41:30.284Z,3.00
2022-11-19T03:44:06.010Z,2.90
2022-11-19T03:46:35.831Z,2.80
2022-11-19T03:49:05.604Z,2.80
2022-11-19T03:51:40.995Z,2.80
2022-11-19T03:54:08.962Z,2.80
2022-11-19T03:56:39.427Z,2.80
2022-11-19T03:59:09.643Z,2.80
2022-11-19T04:01:38.069Z,2.80
2022-11-19T04:04:24.203Z,2.90
2022-11-19T04:06:51.582Z,2.90
2022-11-19T04:09:19.225Z,2.90
2022-11-19T04:14:12.823Z,3.00
2022-11-19T04:16:40.099Z,3.00
2022-11-19T04:19:07.342Z,3.00
2022-11-19T04:21:34.628Z,3.00
2022-11-19T04:24:01.987Z,3.00
2022-11-19T04:26:29.383Z,3.00
2022-11-19T04:28:56.604Z,3.00
2022-11-19T04:31:24.024Z,2.90
2022-11-19T04:33:51.276Z,2.90
2022-11-19T04:36:18.532Z,2.90
2022-11-19T04:38:45.775Z,2.80
2022-11-19T04:41:13.022Z,2.80
2022-11-19T04:43:40.474Z,2.80
2022-11-19T04:46:07.852Z,2.90
2022-11-19T04:48:35.105Z,2.90
2022-11-19T04:51:02.502Z,2.90
2022-11-19T04:53:30.018Z,2.90
2022-11-19T04:55:57.231Z,2.90
2022-11-19T04:58:24.614Z,2.80
2022-11-19T05:00:52.246Z,2.80
2022-11-19T05:03:19.582Z,2.80
2022-11-19T05:05:46.933Z,2.80
2022-11-19T05:08:14.180Z,2.70
2022-11-19T05:10:41.782Z,2.70
2022-11-19T05:13:09.058Z,2.80
2022-11-19T05:15:36.524Z,2.80
2022-11-19T05:18:03.954Z,2.80
2022-11-19T05:20:31.426Z,2.80
2022-11-19T05:22:58.767Z,2.80
2022-11-19T05:25:26.364Z,3.00
2022-11-19T05:27:54.059Z,3.00
2022-11-19T05:30:21.420Z,3.10
2022-11-19T05:32:48.897Z,3.20
2022-11-19T05:35:16.277Z,3.20
2022-11-19T05:37:43.503Z,3.20
2022-11-19T05:40:11.355Z,3.30
2022-11-19T05:42:38.769Z,3.30
2022-11-19T05:45:06.888Z,3.30
2022-11-19T05:47:34.343Z,3.40
2022-11-19T05:50:01.786Z,3.40
2022-11-19T05:52:29.029Z,3.50
2022-11-19T05:54:56.246Z,3.50
2022-11-19T05:57:23.844Z,3.60
2022-11-19T05:59:51.302Z,3.60
2022-11-19T06:02:18.638Z,3.60
2022-11-19T06:04:45.850Z,3.60
2022-11-19T06:07:13.135Z,3.60
2022-11-19T06:09:40.394Z,3.50
2022-11-19T06:12:09.229Z,3.60
2022-11-19T06:14:37.670Z,3.60
2022-11-19T06:17:04.990Z,3.60
2022-11-19T06:19:32.265Z,3.60
2022-11-19T06:22:00.914Z,3.60
2022-11-19T06:24:31.896Z,3.50
2022-11-19T06:26:59.192Z,3.40
2022-11-19T06:29:26.604Z,3.40
2022-11-19T06:31:54.296Z,3.40
2022-11-19T06:34:21.801Z,3.30
2022-11-19T06:36:50.920Z,3.30
2022-11-19T06:39:19.265Z,3.30
2022-11-19T06:41:48.909Z,3.20
2022-11-19T06:44:16.393Z,3.20
2022-11-19T06:46:43.814Z,3.20
2022-11-19T06:49:16.826Z,3.20
2022-11-19T06:51:47.150Z,3.20
2022-11-19T06:54:14.788Z,3.20
2022-11-19T06:56:42.027Z,3.30
2022-11-19T06:59:09.390Z,3.30
2022-11-19T07:01:36.854Z,3.40
2022-11-19T07:04:04.362Z,3.50
2022-11-19T07:06:31.650Z,3.50
2022-11-19T07:08:59.245Z,3.60
2022-11-19T07:11:26.487Z,3.60
2022-11-19T07:13:57.835Z,3.50
2022-11-19T07:16:27.105Z,3.50
2022-11-19T07:18:54.617Z,3.50
2022-11-19T07:21:21.912Z,3.40
2022-11-19T07:23:49.182Z,3.50
2022-11-19T07:26:16.413Z,3.60
2022-11-19T07:28:43.828Z,3.70
2022-11-19T07:31:11.235Z,3.80
2022-11-19T07:33:39.470Z,3.80
2022-11-19T07:36:08.088Z,3.80
2022-11-19T07:38:37.111Z,3.90
2022-11-19T07:41:25.731Z,3.90
2022-11-19T07:43:53.023Z,3.80
2022-11-19T07:46:20.452Z,3.70
2022-11-19T07:48:47.704Z,3.70
2022-11-19T07:51:14.998Z,3.70
2022-11-19T07:53:42.778Z,3.70
2022-11-19T07:56:10.038Z,3.70
2022-11-19T07:58:37.312Z,3.70
2022-11-19T08:01:12.846Z,3.70
2022-11-19T08:03:42.559Z,3.80
2022-11-19T08:06:10.196Z,3.80
2022-11-19T08:08:37.442Z,3.90
2022-11-19T08:11:06.420Z,3.90
2022-11-19T08:13:34.886Z,3.90
2022-11-19T08:16:04.404Z,3.90
2022-11-19T08:18:32.116Z,3.90
2022-11-19T08:21:08.797Z,4.00
2022-11-19T08:23:37.292Z,4.10
2022-11-19T08:26:07.098Z,4.20
2022-11-19T08:28:34.694Z,4.20
2022-11-19T08:31:09.438Z,4.20
2022-11-19T08:33:36.736Z,4.20
2022-11-19T08:36:04.488Z,4.10
2022-11-19T08:38:37.226Z,4.10
2022-11-19T08:41:24.541Z,4.10
2022-11-19T08:43:51.801Z,4.10
2022-11-19T08:46:19.104Z,4.00
2022-11-19T08:48:46.361Z,4.10
2022-11-19T08:51:14.875Z,4.00
2022-11-19T08:53:42.433Z,4.00
2022-11-19T08:56:12.820Z,4.10
2022-11-19T08:58:44.093Z,4.10
2022-11-19T09:01:13.082Z,4.20
2022-11-19T09:03:40.836Z,4.40
2022-11-19T09:06:09.203Z,4.60
2022-11-19T09:08:37.117Z,4.70
2022-11-19T09:11:13.092Z,4.70
2022-11-19T09:13:40.884Z,4.60
2022-11-19T09:16:09.053Z,4.50
2022-11-19T09:18:40.161Z,4.60
2022-11-19T09:21:09.722Z,4.70
2022-11-19T09:23:37.128Z,4.60
2022-11-19T09:26:07.193Z,4.50
2022-11-19T09:28:34.968Z,4.50
2022-11-19T09:31:16.730Z,4.60
2022-11-19T09:33:48.404Z,4.90
2022-11-19T09:36:17.864Z,5.00
2022-11-19T09:38:45.741Z,5.10
2022-11-19T09:41:55.341Z,5.00
2022-11-19T09:44:56.374Z,5.00
2022-11-19T09:47:52.886Z,5.10
2022-11-19T09:50:33.030Z,5.10
2022-11-19T09:53:14.065Z,5.00
2022-11-19T09:55:45.341Z,4.80
2022-11-19T09:58:34.302Z,4.70
2022-11-19T10:01:01.970Z,4.70
2022-11-19T10:03:33.480Z,4.80
2022-11-19T10:06:07.416Z,4.80
2022-11-19T10:08:57.686Z,4.80
2022-11-19T10:11:52.347Z,4.80
2022-11-19T10:14:55.124Z,4.70
2022-11-19T10:17:33.230Z,4.80
2022-11-19T10:20:34.114Z,5.10
2022-11-19T10:23:39.706Z,5.30
2022-11-19T10:26:13.242Z,5.50
2022-11-19T10:28:56.956Z,5.70
2022-11-19T10:31:39.570Z,5.80
2022-11-19T10:34:13.005Z,5.60
2022-11-19T10:36:44.618Z,5.50
2022-11-19T10:39:44.083Z,5.50
2022-11-19T10:42:11.303Z,5.40
2022-11-19T10:44:49.495Z,5.30
2022-11-19T10:47:22.322Z,5.30
2022-11-19T10:49:54.721Z,5.30
2022-11-19T10:52:29.954Z,5.50
2022-11-19T10:55:03.968Z,5.60
2022-11-19T10:57:33.071Z,5.40
2022-11-19T11:00:11.055Z,5.40
2022-11-19T11:02:59.627Z,5.30
2022-11-19T11:05:27.809Z,5.40
2022-11-19T11:08:01.024Z,5.40
2022-11-19T11:10:32.116Z,5.40
2022-11-19T11:13:36.301Z,5.40
2022-11-19T11:16:11.937Z,5.40
2022-11-19T11:18:40.788Z,5.20
2022-11-19T11:21:14.050Z,5.20
2022-11-19T11:23:52.683Z,5.20
2022-11-19T11:26:27.046Z,5.20
2022-11-19T11:29:21.991Z,5.40
2022-11-19T11:31:49.526Z,5.50
2022-11-19T11:34:26.016Z,5.50
2022-11-19T11:36:54.579Z,5.60
2022-11-19T11:39:44.287Z,5.60
2022-11-19T11:42:18.670Z,5.60
2022-11-19T11:45:00.756Z,5.50
2022-11-19T11:47:31.144Z,5.50
2022-11-19T11:50:07.764Z,5.50
2022-11-19T11:52:41.969Z,5.60
2022-11-19T11:55:24.488Z,5.60
2022-11-19T11:58:01.125Z,5.70
2022-11-19T12:00:43.440Z,5.80
2022-11-19T12:03:14.021Z,5.90
2022-11-19T12:06:02.329Z,5.90
2022-11-19T12:08:35.584Z,5.90
2022-11-19T12:11:27.536Z,5.90
2022-11-19T12:14:11.206Z,5.90
2022-11-19T12:17:04.157Z,5.70
2022-11-19T12:19:41.607Z,5.60
2022-11-19T12:22:39.315Z,5.50
2022-11-19T12:25:19.445Z,5.60
2022-11-19T12:28:01.743Z,5.80
2022-11-19T12:30:42.770Z,5.80
2022-11-19T12:33:28.685Z,5.70
2022-11-19T12:36:23.118Z,5.60
2022-11-19T12:39:10.675Z,5.60
2022-11-19T12:41:48.052Z,5.50
2022-11-19T12:44:32.464Z,5.60
2022-11-19T12:47:44.692Z,5.60
2022-11-19T12:50:27.496Z,5.70
2022-11-19T12:53:32.571Z,5.70
2022-11-19T12:56:37.192Z,5.80
2022-11-19T12:59:16.526Z,6.00
2022-11-19T13:01:48.756Z,6.10
2022-11-19T13:04:40.430Z,6.20
2022-11-19T13:07:19.075Z,6.20
2022-11-19T13:09:54.620Z,6.20
2022-11-19T13:12:26.705Z,6.20
2022-11-19T13:15:04.815Z,6.20
2022-11-19T13:17:40.435Z,6.20
2022-11-19T13:20:51.471Z,6.30
2022-11-19T13:23:26.342Z,6.30
2022-11-19T13:26:06.338Z,6.30
2022-11-19T13:28:52.231Z,6.40
2022-11-19T13:31:28.475Z,6.40
2022-11-19T13:34:19.184Z,6.40
2022-11-19T13:36:58.680Z,6.40
2022-11-19T13:39:41.623Z,6.30
2022-11-19T13:42:28.658Z,6.40
2022-11-19T13:44:56.005Z,6.40
2022-11-19T13:47:27.080Z,6.50
2022-11-19T13:50:02.028Z,6.40
2022-11-19T13:52:43.795Z,6.40
2022-11-19T13:55:41.337Z,6.40
2022-11-19T13:58:14.405Z,6.30
2022-11-19T14:00:57.308Z,6.20
2022-11-19T14:03:47.582Z,6.20
2022-11-19T14:06:23.664Z,6.10
2022-11-19T14:08:56.101Z,6.00
2022-11-19T14:11:59.002Z,6.00
2022-11-19T14:15:28.183Z,6.00
2022-11-19T14:18:24.226Z,6.00
2022-11-19T14:21:09.971Z,6.00
2022-11-19T14:24:08.676Z,6.00
2022-11-19T14:26:42.058Z,6.10
2022-11-19T14:29:27.577Z,6.10
2022-11-19T14:32:00.665Z,6.10
2022-11-19T14:34:30.523Z,6.00
2022-11-19T14:37:00.733Z,6.00
2022-11-19T14:39:38.565Z,6.00
2022-11-19T14:42:14.925Z,6.00
2022-11-19T14:44:46.637Z,6.00
2022-11-19T14:47:24.412Z,5.90
2022-11-19T14:49:55.008Z,5.90
2022-11-19T14:52:23.643Z,5.90
2022-11-19T14:55:00.386Z,5.80
2022-11-19T14:57:41.537Z,5.80
2022-11-19T15:00:14.916Z,5.70
2022-11-19T15:02:46.501Z,5.70
2022-11-19T15:05:16.778Z,5.70
2022-11-19T15:07:56.283Z,5.70
2022-11-19T15:10:27.726Z,5.70
2022-11-19T15:13:18.744Z,5.70
2022-11-19T15:15:49.665Z,5.70
2022-11-19T15:18:26.232Z,5.70
2022-11-19T15:21:37.811Z,5.70
2022-11-19T15:24:29.821Z,5.60
2022-11-19T15:27:15.816Z,5.60
2022-11-19T15:30:04.645Z,5.50
2022-11-19T15:32:56.485Z,5.40
2022-11-19T15:35:37.637Z,5.30
2022-11-19T15:38:22.911Z,5.30
2022-11-19T15:40:54.994Z,5.30
2022-11-19T15:43:22.333Z,5.40
2022-11-19T15:46:13.745Z,5.40
2022-11-19T15:49:19.054Z,5.40
2022-11-19T15:51:55.667Z,5.40
2022-11-19T15:54:28.455Z,5.40
2022-11-19T15:57:00.549Z,5.30
2022-11-19T15:59:29.173Z,5.20
2022-11-19T16:02:01.666Z,5.10
2022-11-19T16:04:38.958Z,5.10
2022-11-19T16:07:08.869Z,5.10
2022-11-19T16:09:37.417Z,5.10
2022-11-19T16:12:23.287Z,5.20
2022-11-19T16:15:10.617Z,5.10
2022-11-19T16:17:47.274Z,5.10
2022-11-19T16:20:22.520Z,5.10
2022-11-19T16:22:56.365Z,5.10
2022-11-19T16:25:37.505Z,5.10
2022-11-19T16:28:24.145Z,5.00
2022-11-19T16:31:03.087Z,5.00
2022-11-19T16:33:32.680Z,5.00
2022-11-19T16:36:29.771Z,5.10
2022-11-19T16:38:58.098Z,5.10
2022-11-19T16:41:44.478Z,5.10
2022-11-19T16:44:17.798Z,5.20
2022-11-19T16:46:45.863Z,5.20
2022-11-19T16:49:31.109Z,5.20
2022-11-19T16:51:59.453Z,5.20
2022-11-19T16:54:47.000Z,5.20
2022-11-19T16:57:20.432Z,5.30
2022-11-19T16:59:54.118Z,5.30
2022-11-19T17:02:25.200Z,5.30
2022-11-19T17:04:53.883Z,5.20
2022-11-19T17:07:27.319Z,5.20
2022-11-19T17:10:30.154Z,5.30
2022-11-19T17:13:19.846Z,5.30
2022-11-19T17:15:49.234Z,5.40
2022-11-19T17:18:35.268Z,5.40
2022-11-19T17:21:04.062Z,5.40
2022-11-19T17:23:34.803Z,5.30
2022-11-19T17:26:07.884Z,5.20
2022-11-19T17:28:46.554Z,5.20
2022-11-19T17:31:21.051Z,5.20
2022-11-19T17:33:56.044Z,5.20
2022-11-19T17:36:26.395Z,5.20
2022-11-19T17:38:54.285Z,5.20
2022-11-19T17:41:47.624Z,5.10
2022-11-19T17:44:35.828Z,5.10
2022-11-19T17:47:21.066Z,5.20
2022-11-19T17:49:49.440Z,5.20
2022-11-19T17:52:24.755Z,5.20
2022-11-19T17:54:55.102Z,5.20
2022-11-19T17:57:22.450Z,5.20
2022-11-19T17:59:49.946Z,5.10
2022-11-19T18:02:19.972Z,5.10
2022-11-19T18:04:48.187Z,5.10
2022-11-19T18:07:15.800Z,5.00
2022-11-19T18:09:44.056Z,4.90
2022-11-19T18:12:16.593Z,4.80
2022-11-19T18:14:46.284Z,4.90
2022-11-19T18:17:15.207Z,4.90
2022-11-19T18:19:42.490Z,5.00
2022-11-19T18:22:20.171Z,5.10
2022-11-19T18:24:48.861Z,5.10
2022-11-19T18:27:17.000Z,5.20
2022-11-19T18:29:44.418Z,5.20
2022-11-19T18:32:16.117Z,5.20
2022-11-19T18:34:44.434Z,5.30
2022-11-19T18:37:13.297Z,5.30
2022-11-19T18:39:40.699Z,5.20
2022-11-19T18:42:11.239Z,5.20
2022-11-19T18:44:38.907Z,5.20
2022-11-19T18:47:08.645Z,5.20
2022-11-19T18:49:36.816Z,5.20
2022-11-19T18:52:11.028Z,5.20
2022-11-19T18:54:38.657Z,5.20
2022-11-19T18:57:05.954Z,5.30
2022-11-19T18:59:33.315Z,5.30
2022-11-19T19:02:00.698Z,5.30
2022-11-19T19:04:28.117Z,5.30
2022-11-19T19:06:55.848Z,5.30
2022-11-19T19:09:23.692Z,5.30
2022-11-19T19:12:13.402Z,5.30
2022-11-19T19:14:42.503Z,5.30
2022-11-19T19:17:10.791Z,5.30
2022-11-19T19:19:39.249Z,5.20
2022-11-19T19:22:07.232Z,5.20
2022-11-19T19:24:34.651Z,5.20
2022-11-19T19:27:02.618Z,5.20
2022-11-19T19:29:29.976Z,5.20
2022-11-19T19:31:58.142Z,5.30
2022-11-19T19:34:25.446Z,5.30
2022-11-19T19:36:54.443Z,5.30
2022-11-19T19:39:22.202Z,5.30
2022-11-19T19:41:49.709Z,5.20
2022-11-19T19:44:17.504Z,5.30
2022-11-19T19:46:48.722Z,5.20
2022-11-19T19:49:15.986Z,5.20
2022-11-19T19:51:43.406Z,5.30
2022-11-19T19:54:10.793Z,5.30
2022-11-19T19:56:39.753Z,5.30
2022-11-19T19:59:07.091Z,5.40
2022-11-19T20:01:36.096Z,5.40
2022-11-19T20:04:09.056Z,5.40
2022-11-19T20:06:41.008Z,5.40
2022-11-19T20:09:09.194Z,5.50
2022-11-19T20:11:37.927Z,5.40
2022-11-19T20:14:05.846Z,5.40
2022-11-19T20:16:34.027Z,5.30
2022-11-19T20:19:02.056Z,5.30
2022-11-19T20:21:34.019Z,5.30
2022-11-19T20:24:04.874Z,5.30
2022-11-19T20:26:34.619Z,5.20
2022-11-19T20:29:05.234Z,5.20
2022-11-19T20:31:34.149Z,5.20
2022-11-19T20:34:03.848Z,5.20
2022-11-19T20:36:33.638Z,5.20
2022-11-19T20:39:01.889Z,5.30
2022-11-19T20:41:48.118Z,5.30
2022-11-19T20:44:21.041Z,5.20
2022-11-19T20:47:02.435Z,5.20
2022-11-19T20:49:33.093Z,5.20
2022-11-19T20:52:01.480Z,5.20
2022-11-19T20:54:29.214Z,5.30
2022-11-19T20:56:57.878Z,5.30
2022-11-19T20:59:26.345Z,5.20
2022-11-19T21:01:55.578Z,5.20
2022-11-19T21:04:25.376Z,5.20
2022-11-19T21:06:56.199Z,5.20
2022-11-19T21:09:24.389Z,5.20
2022-11-19T21:11:52.136Z,5.10
2022-11-19T21:14:19.910Z,5.10
2022-11-19T21:16:47.270Z,5.20
2022-11-19T21:19:15.976Z,5.20
2022-11-19T21:21:44.870Z,5.20
2022-11-19T21:24:12.553Z,5.20
2022-11-19T21:26:40.159Z,5.30
2022-11-19T21:29:07.903Z,5.30
2022-11-19T21:31:40.599Z,5.30
2022-11-19T21:34:10.859Z,5.30
2022-11-19T21:36:38.667Z,5.20
2022-11-19T21:39:07.355Z,5.20
2022-11-19T21:41:34.965Z,5.20
2022-11-19T21:44:03.220Z,5.20
2022-11-19T21:46:30.722Z,5.20
2022-11-19T21:48:58.413Z,5.20
2022-11-19T21:51:26.045Z,5.20
2022-11-19T21:53:57.469Z,5.20
2022-11-19T21:56:26.885Z,5.30
2022-11-19T21:58:54.420Z,5.30
2022-11-19T22:01:21.852Z,5.40
2022-11-19T22:03:49.226Z,5.40
2022-11-19T22:06:16.591Z,5.50
2022-11-19T22:08:44.388Z,5.50
2022-11-19T22:11:31.183Z,5.60
2022-11-19T22:14:05.179Z,5.60
2022-11-19T22:16:35.525Z,5.60
2022-11-19T22:19:03.309Z,5.60
2022-11-19T22:21:30.640Z,5.60
2022-11-19T22:23:58.162Z,5.60
2022-11-19T22:26:25.847Z,5.60
2022-11-19T22:28:53.227Z,5.60
2022-11-19T22:31:20.606Z,5.60
2022-11-19T22:33:49.748Z,5.50
2022-11-19T22:36:18.829Z,5.50
2022-11-19T22:38:46.085Z,5.40
2022-11-19T22:41:15.859Z,5.40
2022-11-19T22:43:43.581Z,5.40
2022-11-19T22:46:13.338Z,5.50
2022-11-19T22:48:41.136Z,5.50
2022-11-19T22:51:12.667Z,5.60
2022-11-19T22:53:40.477Z,5.60
2022-11-19T22:56:10.103Z,5.50
2022-11-19T22:58:38.554Z,5.50
2022-11-19T23:01:07.981Z,5.50
2022-11-19T23:03:37.104Z,5.50
2022-11-19T23:06:04.687Z,5.60
2022-11-19T23:08:31.924Z,5.60
2022-11-19T23:11:01.147Z,5.70
2022-11-19T23:13:33.680Z,5.70
2022-11-19T23:16:05.970Z,5.60
2022-11-19T23:18:36.375Z,5.50
2022-11-19T23:21:25.213Z,5.50
2022-11-19T23:23:53.055Z,5.30
2022-11-19T23:26:22.685Z,5.20
2022-11-19T23:28:50.271Z,5.20
2022-11-19T23:31:20.669Z,5.20
2022-11-19T23:33:48.897Z,5.10
2022-11-19T23:36:19.366Z,5.00
2022-11-19T23:38:47.044Z,5.00
2022-11-19T23:41:16.538Z,5.00
2022-11-19T23:43:44.457Z,5.10
2022-11-19T23:46:20.597Z,5.10
2022-11-19T23:48:49.523Z,5.20
2022-11-19T23:51:38.763Z,5.20
2022-11-19T23:54:06.325Z,5.30
2022-11-19T23:56:35.847Z,5.30
2022-11-19T23:59:04.734Z,5.30
